Time;durP1;ratioP1;P1;durP2;ratioP2;P2;SDS_P1;SDS_P2;PMS_P1;PMS_P2;Temp;Humidity;BMP_temperature;BMP_pressure;BME280_temperature;BME280_humidity;BME280_pressure;Samples;Min_cycle;Max_cycle;Signal;HPM_P1;HPM_P2
2021/09/22 00:01:41;;;;;;;2.69;2.49;;;;;;;20.17;66.95;101708.64;;;;-54
2021/09/22 00:04:40;;;;;;;2.79;2.57;;;;;;;20.18;66.93;101707.26;;;;-54
2021/09/22 00:07:40;;;;;;;2.80;2.60;;;;;;;20.16;67.03;101704.20;;;;-60
2021/09/22 00:10:41;;;;;;;2.79;2.59;;;;;;;20.15;67.08;101707.13;;;;-52
2021/09/22 00:13:41;;;;;;;3.02;2.65;;;;;;;20.15;67.10;101708.06;;;;-54
2021/09/22 00:16:40;;;;;;;2.61;2.41;;;;;;;20.15;67.12;101710.34;;;;-60
2021/09/22 00:19:40;;;;;;;2.66;2.46;;;;;;;20.14;67.04;101711.48;;;;-60
2021/09/22 00:22:40;;;;;;;2.91;2.61;;;;;;;20.14;67.07;101712.28;;;;-54
2021/09/22 00:25:40;;;;;;;2.70;2.50;;;;;;;20.14;67.05;101716.61;;;;-50
2021/09/22 00:28:41;;;;;;;2.59;2.39;;;;;;;20.14;67.05;101718.80;;;;-51
2021/09/22 00:31:40;;;;;;;2.73;2.53;;;;;;;20.13;67.05;101724.30;;;;-54
2021/09/22 00:34:40;;;;;;;2.77;2.56;;;;;;;20.13;67.06;101726.94;;;;-52
2021/09/22 00:37:40;;;;;;;2.73;2.53;;;;;;;20.13;67.02;101718.88;;;;-50
2021/09/22 00:40:41;;;;;;;2.71;2.51;;;;;;;20.11;67.15;101718.58;;;;-50
2021/09/22 00:43:40;;;;;;;2.74;2.54;;;;;;;20.12;67.04;101723.64;;;;-60
2021/09/22 00:46:40;;;;;;;2.66;2.46;;;;;;;20.11;67.07;101722.08;;;;-59
2021/09/22 00:49:41;;;;;;;2.77;2.57;;;;;;;20.10;67.07;101721.23;;;;-60
2021/09/22 00:52:41;;;;;;;2.81;2.61;;;;;;;20.11;67.07;101718.39;;;;-60
2021/09/22 00:55:40;;;;;;;2.67;2.47;;;;;;;20.11;67.04;101715.78;;;;-60
2021/09/22 00:58:40;;;;;;;2.73;2.52;;;;;;;20.09;67.08;101714.63;;;;-50
2021/09/22 01:01:40;;;;;;;2.65;2.45;;;;;;;20.10;67.08;101713.41;;;;-50
2021/09/22 01:04:40;;;;;;;2.60;2.40;;;;;;;20.11;67.04;101716.59;;;;-60
2021/09/22 01:07:41;;;;;;;2.60;2.40;;;;;;;20.10;67.02;101707.15;;;;-50
2021/09/22 01:10:40;;;;;;;2.85;2.56;;;;;;;20.09;67.04;101701.84;;;;-60
2021/09/22 01:13:40;;;;;;;2.67;2.47;;;;;;;20.08;67.07;101708.16;;;;-60
2021/09/22 01:16:40;;;;;;;2.77;2.57;;;;;;;20.07;67.10;101706.69;;;;-54
2021/09/22 01:19:40;;;;;;;2.70;2.50;;;;;;;20.07;67.11;101707.58;;;;-60
2021/09/22 01:22:40;;;;;;;2.77;2.57;;;;;;;20.07;67.05;101700.09;;;;-54
2021/09/22 01:25:41;;;;;;;3.12;2.49;;;;;;;20.07;67.10;101696.27;;;;-52
2021/09/22 01:28:41;;;;;;;2.66;2.46;;;;;;;20.07;67.06;101698.79;;;;-52
2021/09/22 01:31:40;;;;;;;2.47;2.27;;;;;;;20.06;67.11;101703.31;;;;-52
2021/09/22 01:34:40;;;;;;;2.79;2.59;;;;;;;20.06;67.08;101705.10;;;;-54
2021/09/22 01:37:40;;;;;;;2.57;2.37;;;;;;;20.06;67.13;101711.52;;;;-54
2021/09/22 01:40:40;;;;;;;3.03;2.51;;;;;;;20.07;67.05;101714.82;;;;-60
2021/09/22 01:43:41;;;;;;;2.71;2.51;;;;;;;20.06;67.08;101716.09;;;;-54
2021/09/22 01:46:40;;;;;;;2.74;2.54;;;;;;;20.06;67.08;101714.45;;;;-50
2021/09/22 01:49:40;;;;;;;2.67;2.47;;;;;;;20.06;67.01;101723.00;;;;-54
2021/09/22 01:52:40;;;;;;;2.73;2.53;;;;;;;20.04;67.13;101721.66;;;;-60
2021/09/22 01:55:40;;;;;;;2.69;2.49;;;;;;;20.05;67.10;101721.37;;;;-59
2021/09/22 01:58:40;;;;;;;2.39;2.19;;;;;;;20.04;67.14;101722.63;;;;-59
2021/09/22 02:01:40;;;;;;;2.57;2.37;;;;;;;20.04;67.09;101724.33;;;;-51
2021/09/22 02:04:40;;;;;;;2.61;2.41;;;;;;;20.04;67.12;101723.36;;;;-52
2021/09/22 02:07:40;;;;;;;2.69;2.49;;;;;;;20.02;67.14;101716.56;;;;-54
2021/09/22 02:10:40;;;;;;;2.64;2.44;;;;;;;20.01;67.19;101717.52;;;;-54
2021/09/22 02:13:41;;;;;;;2.73;2.53;;;;;;;20.02;67.14;101721.59;;;;-54
2021/09/22 02:16:40;;;;;;;2.79;2.59;;;;;;;20.00;67.20;101716.84;;;;-54
2021/09/22 02:19:40;;;;;;;2.75;2.55;;;;;;;20.01;67.13;101709.62;;;;-60
2021/09/22 02:22:41;;;;;;;2.86;2.66;;;;;;;20.02;67.08;101709.31;;;;-60
2021/09/22 02:25:40;;;;;;;2.78;2.58;;;;;;;20.00;67.14;101712.93;;;;-52
2021/09/22 02:28:40;;;;;;;2.87;2.47;;;;;;;20.00;67.17;101707.47;;;;-52
2021/09/22 02:31:40;;;;;;;2.77;2.57;;;;;;;20.01;67.18;101704.58;;;;-54
2021/09/22 02:34:40;;;;;;;2.65;2.45;;;;;;;20.00;67.13;101697.80;;;;-52
2021/09/22 02:37:40;;;;;;;2.72;2.52;;;;;;;19.99;67.14;101692.83;;;;-51
2021/09/22 02:40:40;;;;;;;2.72;2.52;;;;;;;19.99;67.17;101692.89;;;;-54
2021/09/22 02:43:40;;;;;;;2.59;2.39;;;;;;;19.99;67.13;101689.73;;;;-54
2021/09/22 02:46:40;;;;;;;2.83;2.63;;;;;;;19.99;67.12;101678.58;;;;-52
2021/09/22 02:49:40;;;;;;;2.62;2.42;;;;;;;19.98;67.17;101683.02;;;;-52
2021/09/22 02:52:40;;;;;;;2.69;2.49;;;;;;;19.99;67.13;101685.66;;;;-54
2021/09/22 02:55:42;;;;;;;2.63;2.43;;;;;;;19.98;67.12;101679.03;;;;-60
2021/09/22 02:58:40;;;;;;;2.54;2.34;;;;;;;19.99;67.10;101677.20;;;;-54
2021/09/22 03:01:40;;;;;;;2.63;2.43;;;;;;;19.99;67.11;101685.33;;;;-60
2021/09/22 03:04:40;;;;;;;2.77;2.57;;;;;;;19.98;67.10;101691.56;;;;-60
2021/09/22 03:07:40;;;;;;;2.59;2.39;;;;;;;19.99;67.13;101696.48;;;;-55
2021/09/22 03:10:40;;;;;;;2.69;2.49;;;;;;;19.97;67.11;101691.06;;;;-52
2021/09/22 03:13:41;;;;;;;2.81;2.61;;;;;;;19.98;67.12;101696.39;;;;-52
2021/09/22 03:16:40;;;;;;;2.53;2.33;;;;;;;19.96;67.15;101691.27;;;;-52
2021/09/22 03:19:40;;;;;;;2.60;2.33;;;;;;;19.94;67.25;101692.92;;;;-52
2021/09/22 03:22:41;;;;;;;2.51;2.31;;;;;;;19.94;67.22;101695.97;;;;-52
2021/09/22 03:25:40;;;;;;;2.93;2.71;;;;;;;19.95;67.21;101691.34;;;;-51
2021/09/22 03:28:40;;;;;;;2.55;2.35;;;;;;;19.95;67.18;101693.45;;;;-50
2021/09/22 03:31:42;;;;;;;2.77;2.57;;;;;;;19.95;67.12;101695.08;;;;-54
2021/09/22 03:34:40;;;;;;;2.59;2.39;;;;;;;19.95;67.13;101703.05;;;;-52
2021/09/22 03:37:40;;;;;;;2.49;2.29;;;;;;;19.93;67.17;101695.44;;;;-54
2021/09/22 03:40:40;;;;;;;2.70;2.47;;;;;;;19.94;67.16;101696.09;;;;-52
2021/09/22 03:43:41;;;;;;;2.71;2.51;;;;;;;19.94;67.12;101692.68;;;;-50
2021/09/22 03:46:40;;;;;;;2.65;2.45;;;;;;;19.93;67.15;101699.09;;;;-54
2021/09/22 03:49:40;;;;;;;2.81;2.61;;;;;;;19.94;67.11;101700.33;;;;-54
2021/09/22 03:52:40;;;;;;;2.69;2.49;;;;;;;19.93;67.09;101702.92;;;;-52
2021/09/22 03:55:40;;;;;;;2.71;2.51;;;;;;;19.93;67.04;101711.95;;;;-54
2021/09/22 03:58:40;;;;;;;2.59;2.39;;;;;;;19.93;67.09;101708.78;;;;-60
2021/09/22 04:01:40;;;;;;;2.60;2.40;;;;;;;19.92;67.10;101709.23;;;;-51
2021/09/22 04:04:40;;;;;;;2.59;2.39;;;;;;;19.93;67.05;101706.42;;;;-53
2021/09/22 04:07:40;;;;;;;2.57;2.37;;;;;;;19.93;67.06;101703.73;;;;-60
2021/09/22 04:10:40;;;;;;;2.61;2.41;;;;;;;19.93;67.05;101706.83;;;;-50
2021/09/22 04:13:40;;;;;;;2.77;2.57;;;;;;;19.92;67.05;101706.05;;;;-50
2021/09/22 04:16:40;;;;;;;2.55;2.35;;;;;;;19.91;67.11;101705.64;;;;-52
2021/09/22 04:19:40;;;;;;;2.70;2.50;;;;;;;19.91;67.04;101704.17;;;;-51
2021/09/22 04:22:41;;;;;;;2.59;2.39;;;;;;;19.91;67.12;101702.62;;;;-52
2021/09/22 04:25:40;;;;;;;2.75;2.55;;;;;;;19.91;67.08;101709.30;;;;-52
2021/09/22 04:28:40;;;;;;;2.71;2.51;;;;;;;19.89;67.12;101707.30;;;;-54
2021/09/22 04:31:40;;;;;;;2.73;2.53;;;;;;;19.89;67.11;101710.63;;;;-54
2021/09/22 04:34:40;;;;;;;2.60;2.40;;;;;;;19.89;67.12;101705.09;;;;-52
2021/09/22 04:37:41;;;;;;;2.49;2.29;;;;;;;19.88;67.12;101710.43;;;;-52
2021/09/22 04:40:40;;;;;;;2.72;2.52;;;;;;;19.89;67.08;101712.34;;;;-51
2021/09/22 04:43:40;;;;;;;2.69;2.49;;;;;;;19.88;67.07;101711.20;;;;-52
2021/09/22 04:46:40;;;;;;;2.69;2.47;;;;;;;19.87;67.13;101715.88;;;;-54
2021/09/22 04:49:40;;;;;;;2.61;2.41;;;;;;;19.87;67.08;101719.05;;;;-52
2021/09/22 04:52:40;;;;;;;2.64;2.44;;;;;;;19.87;67.09;101716.36;;;;-52
2021/09/22 04:55:40;;;;;;;2.60;2.40;;;;;;;19.88;67.09;101716.61;;;;-52
2021/09/22 04:58:40;;;;;;;2.69;2.49;;;;;;;19.87;67.08;101717.17;;;;-50
2021/09/22 05:01:40;;;;;;;2.60;2.40;;;;;;;19.87;67.07;101716.36;;;;-54
2021/09/22 05:04:40;;;;;;;2.64;2.44;;;;;;;19.86;67.10;101718.19;;;;-54
2021/09/22 05:07:40;;;;;;;2.59;2.39;;;;;;;19.86;67.08;101725.55;;;;-50
2021/09/22 05:10:40;;;;;;;2.77;2.57;;;;;;;19.86;67.14;101729.61;;;;-50
2021/09/22 05:13:40;;;;;;;2.81;2.61;;;;;;;19.87;67.09;101726.85;;;;-60
2021/09/22 05:16:40;;;;;;;2.74;2.54;;;;;;;19.87;67.04;101724.66;;;;-52
2021/09/22 05:19:40;;;;;;;2.51;2.31;;;;;;;19.87;67.00;101720.91;;;;-50
2021/09/22 05:22:40;;;;;;;2.69;2.49;;;;;;;19.87;67.06;101719.20;;;;-60
2021/09/22 05:25:40;;;;;;;2.67;2.47;;;;;;;19.87;66.99;101724.17;;;;-50
2021/09/22 05:28:40;;;;;;;2.80;2.60;;;;;;;19.86;67.08;101723.19;;;;-54
2021/09/22 05:31:40;;;;;;;2.73;2.53;;;;;;;19.85;67.06;101725.09;;;;-60
2021/09/22 05:34:40;;;;;;;3.34;2.67;;;;;;;19.86;67.03;101726.92;;;;-54
2021/09/22 05:37:40;;;;;;;2.67;2.47;;;;;;;19.86;67.03;101731.37;;;;-60
2021/09/22 05:40:40;;;;;;;2.60;2.40;;;;;;;19.85;67.04;101730.62;;;;-50
2021/09/22 05:43:40;;;;;;;2.55;2.35;;;;;;;19.84;67.07;101730.83;;;;-50
2021/09/22 05:46:40;;;;;;;2.59;2.39;;;;;;;19.84;67.08;101729.97;;;;-51
2021/09/22 05:49:40;;;;;;;2.74;2.54;;;;;;;19.83;67.05;101731.96;;;;-50
2021/09/22 05:52:40;;;;;;;2.59;2.39;;;;;;;19.83;67.11;101730.98;;;;-50
2021/09/22 05:55:40;;;;;;;2.84;2.60;;;;;;;19.83;67.12;101735.30;;;;-50
2021/09/22 05:58:40;;;;;;;2.73;2.53;;;;;;;19.83;67.08;101733.59;;;;-50
2021/09/22 06:01:40;;;;;;;2.83;2.62;;;;;;;19.84;67.11;101732.78;;;;-50
2021/09/22 06:04:40;;;;;;;2.69;2.49;;;;;;;19.83;67.13;101730.58;;;;-50
2021/09/22 06:07:40;;;;;;;2.55;2.35;;;;;;;19.84;67.06;101733.92;;;;-50
2021/09/22 06:10:40;;;;;;;2.60;2.40;;;;;;;19.83;67.13;101744.56;;;;-50
2021/09/22 06:13:40;;;;;;;2.59;2.39;;;;;;;19.84;67.10;101745.75;;;;-50
2021/09/22 06:16:40;;;;;;;2.55;2.35;;;;;;;19.84;67.11;101742.17;;;;-51
2021/09/22 06:19:40;;;;;;;2.49;2.29;;;;;;;19.83;67.14;101745.87;;;;-51
2021/09/22 06:22:40;;;;;;;2.73;2.53;;;;;;;19.83;67.14;101751.89;;;;-51
2021/09/22 06:25:40;;;;;;;2.60;2.40;;;;;;;19.84;67.16;101753.23;;;;-50
2021/09/22 06:28:40;;;;;;;2.55;2.35;;;;;;;19.83;67.19;101755.39;;;;-50
2021/09/22 06:31:40;;;;;;;2.50;2.30;;;;;;;19.84;67.12;101749.66;;;;-60
2021/09/22 06:34:40;;;;;;;3.59;2.43;;;;;;;19.83;67.14;101745.14;;;;-60
2021/09/22 06:37:40;;;;;;;2.49;2.29;;;;;;;19.83;67.10;101747.98;;;;-60
2021/09/22 06:40:40;;;;;;;2.68;2.48;;;;;;;19.82;67.16;101748.06;;;;-59
2021/09/22 06:43:40;;;;;;;2.50;2.30;;;;;;;19.82;67.18;101752.70;;;;-60
2021/09/22 06:46:40;;;;;;;2.65;2.45;;;;;;;19.83;67.18;101755.80;;;;-60
2021/09/22 06:49:40;;;;;;;2.67;2.47;;;;;;;19.81;67.20;101756.72;;;;-52
2021/09/22 06:52:40;;;;;;;2.46;2.26;;;;;;;19.81;67.17;101759.73;;;;-52
2021/09/22 06:55:40;;;;;;;2.45;2.25;;;;;;;19.82;67.16;101761.32;;;;-52
2021/09/22 06:58:40;;;;;;;2.50;2.30;;;;;;;19.81;67.21;101769.33;;;;-52
2021/09/22 07:01:40;;;;;;;2.59;2.30;;;;;;;19.81;67.17;101768.11;;;;-52
2021/09/22 07:04:40;;;;;;;2.65;2.45;;;;;;;19.82;67.12;101766.73;;;;-52
2021/09/22 07:07:40;;;;;;;2.68;2.25;;;;;;;19.81;67.18;101766.39;;;;-51
2021/09/22 07:10:40;;;;;;;2.86;2.55;;;;;;;19.81;67.16;101767.13;;;;-52
2021/09/22 07:13:40;;;;;;;2.46;2.26;;;;;;;19.81;67.14;101768.52;;;;-54
2021/09/22 07:16:40;;;;;;;2.43;2.23;;;;;;;19.81;67.15;101777.22;;;;-53
2021/09/22 07:19:40;;;;;;;2.51;2.31;;;;;;;19.81;67.16;101776.56;;;;-54
2021/09/22 07:22:40;;;;;;;2.51;2.31;;;;;;;19.80;67.14;101779.66;;;;-50
2021/09/22 07:25:40;;;;;;;2.55;2.35;;;;;;;19.79;67.22;101779.28;;;;-52
2021/09/22 07:28:40;;;;;;;2.58;2.38;;;;;;;19.79;67.29;101781.56;;;;-51
2021/09/22 07:31:40;;;;;;;2.60;2.40;;;;;;;19.80;67.22;101784.69;;;;-54
2021/09/22 07:34:40;;;;;;;2.55;2.35;;;;;;;19.79;67.25;101781.32;;;;-54
2021/09/22 07:37:40;;;;;;;2.67;2.47;;;;;;;19.79;67.25;101776.68;;;;-54
2021/09/22 07:40:40;;;;;;;2.60;2.40;;;;;;;19.78;67.24;101775.29;;;;-54
2021/09/22 07:43:40;;;;;;;2.54;2.34;;;;;;;19.79;67.21;101776.59;;;;-54
2021/09/22 07:46:40;;;;;;;2.64;2.27;;;;;;;19.79;67.19;101773.42;;;;-54
2021/09/22 07:49:40;;;;;;;2.51;2.31;;;;;;;19.78;67.25;101774.48;;;;-54
2021/09/22 07:52:40;;;;;;;2.50;2.30;;;;;;;19.77;67.33;101781.59;;;;-60
2021/09/22 07:55:40;;;;;;;2.40;2.20;;;;;;;19.78;67.30;101781.06;;;;-54
2021/09/22 07:58:40;;;;;;;2.55;2.35;;;;;;;19.76;67.37;101779.87;;;;-60
2021/09/22 08:01:40;;;;;;;2.47;2.27;;;;;;;19.77;67.35;101783.30;;;;-60
2021/09/22 08:04:40;;;;;;;7.23;2.50;;;;;;;19.80;67.39;101782.01;;;;-52
2021/09/22 08:07:40;;;;;;;5.36;2.49;;;;;;;19.81;67.29;101787.38;;;;-53
2021/09/22 08:10:41;;;;;;;2.59;2.39;;;;;;;19.82;67.39;101787.07;;;;-58
2021/09/22 08:13:40;;;;;;;2.34;2.14;;;;;;;19.82;67.52;101790.00;;;;-53
2021/09/22 08:16:40;;;;;;;3.45;2.41;;;;;;;19.84;67.44;101793.91;;;;-52
2021/09/22 08:19:40;;;;;;;5.23;2.21;;;;;;;19.86;67.54;101793.52;;;;-62
2021/09/22 08:22:40;;;;;;;2.77;2.29;;;;;;;19.86;67.56;101792.42;;;;-61
2021/09/22 08:25:40;;;;;;;10.61;2.69;;;;;;;19.89;67.61;101791.34;;;;-59
2021/09/22 08:28:40;;;;;;;5.25;2.35;;;;;;;19.89;67.61;101787.20;;;;-55
2021/09/22 08:31:40;;;;;;;4.85;2.19;;;;;;;19.90;67.71;101785.82;;;;-51
2021/09/22 08:34:40;;;;;;;4.39;2.42;;;;;;;19.92;67.64;101789.05;;;;-61
2021/09/22 08:37:40;;;;;;;5.92;2.08;;;;;;;19.93;67.70;101783.39;;;;-57
2021/09/22 08:40:40;;;;;;;5.31;2.28;;;;;;;19.92;67.66;101783.80;;;;-59
2021/09/22 08:43:40;;;;;;;3.38;2.29;;;;;;;19.92;67.67;101788.72;;;;-52
2021/09/22 08:46:41;;;;;;;6.04;2.29;;;;;;;19.91;67.59;101786.27;;;;-58
2021/09/22 08:49:40;;;;;;;2.62;2.17;;;;;;;19.90;67.64;101782.73;;;;-58
2021/09/22 08:52:40;;;;;;;2.53;2.32;;;;;;;19.88;67.67;101781.73;;;;-51
2021/09/22 08:55:40;;;;;;;3.66;2.44;;;;;;;19.88;67.64;101780.44;;;;-49
2021/09/22 08:58:40;;;;;;;3.48;2.33;;;;;;;19.88;67.60;101781.49;;;;-50
2021/09/22 09:01:40;;;;;;;4.58;2.25;;;;;;;19.88;67.66;101781.05;;;;-50
2021/09/22 09:04:40;;;;;;;2.65;2.45;;;;;;;19.89;67.58;101779.30;;;;-52
2021/09/22 09:07:40;;;;;;;13.09;3.87;;;;;;;19.84;63.83;101775.13;;;;-53
2021/09/22 09:10:40;;;;;;;7.45;4.05;;;;;;;19.82;62.39;101771.61;;;;-58
2021/09/22 09:13:40;;;;;;;7.11;4.26;;;;;;;19.77;61.63;101770.53;;;;-60
2021/09/22 09:16:40;;;;;;;7.68;4.14;;;;;;;19.76;61.53;101768.56;;;;-62
2021/09/22 09:19:40;;;;;;;9.08;4.28;;;;;;;19.71;61.84;101772.48;;;;-51
2021/09/22 09:22:40;;;;;;;5.58;3.73;;;;;;;19.69;62.67;101773.98;;;;-65
2021/09/22 09:25:40;;;;;;;10.69;3.79;;;;;;;19.71;63.05;101772.48;;;;-65
2021/09/22 09:28:40;;;;;;;4.51;3.70;;;;;;;19.73;63.33;101773.59;;;;-65
2021/09/22 09:31:40;;;;;;;5.37;3.55;;;;;;;19.73;63.83;101768.22;;;;-57
2021/09/22 09:34:40;;;;;;;5.89;3.35;;;;;;;19.75;64.02;101769.90;;;;-51
2021/09/22 09:37:40;;;;;;;5.01;3.31;;;;;;;19.75;64.28;101766.97;;;;-51
2021/09/22 09:40:40;;;;;;;4.29;3.06;;;;;;;19.75;64.43;101759.81;;;;-51
2021/09/22 09:43:40;;;;;;;6.33;3.43;;;;;;;19.76;64.65;101760.19;;;;-51
2021/09/22 09:46:40;;;;;;;3.81;3.07;;;;;;;19.76;64.82;101757.02;;;;-65
2021/09/22 09:49:41;;;;;;;3.71;3.13;;;;;;;19.76;64.90;101750.84;;;;-66
2021/09/22 09:52:40;;;;;;;3.89;2.97;;;;;;;19.76;64.99;101749.70;;;;-65
2021/09/22 09:55:41;;;;;;;4.65;3.13;;;;;;;19.77;65.18;101748.40;;;;-65
2021/09/22 09:58:40;;;;;;;5.29;3.17;;;;;;;19.77;65.25;101734.49;;;;-65
2021/09/22 10:01:40;;;;;;;3.29;2.83;;;;;;;19.77;65.28;101730.75;;;;-66
2021/09/22 10:04:40;;;;;;;4.13;3.11;;;;;;;19.77;65.38;101725.05;;;;-65
2021/09/22 10:07:40;;;;;;;3.32;3.00;;;;;;;19.78;65.44;101725.83;;;;-67
2021/09/22 10:10:40;;;;;;;4.53;2.93;;;;;;;19.79;65.52;101727.88;;;;-65
2021/09/22 10:13:40;;;;;;;3.79;3.06;;;;;;;19.79;65.58;101719.66;;;;-67
2021/09/22 10:16:40;;;;;;;4.41;3.11;;;;;;;19.78;65.65;101714.77;;;;-65
2021/09/22 10:19:40;;;;;;;4.23;2.86;;;;;;;19.79;65.72;101712.34;;;;-65
2021/09/22 10:22:40;;;;;;;3.15;2.85;;;;;;;19.79;65.75;101706.48;;;;-65
2021/09/22 10:25:40;;;;;;;3.25;2.77;;;;;;;19.79;65.77;101708.10;;;;-51
2021/09/22 10:28:41;;;;;;;4.14;2.87;;;;;;;19.80;65.81;101707.73;;;;-51
2021/09/22 10:31:40;;;;;;;3.67;3.03;;;;;;;19.80;65.86;101700.33;;;;-51
2021/09/22 10:34:40;;;;;;;3.85;2.79;;;;;;;19.80;65.87;101703.52;;;;-51
2021/09/22 10:37:40;;;;;;;3.28;2.93;;;;;;;19.80;65.94;101701.55;;;;-51
2021/09/22 10:40:40;;;;;;;4.07;2.92;;;;;;;19.81;65.94;101694.48;;;;-51
2021/09/22 10:43:40;;;;;;;3.67;2.77;;;;;;;19.80;66.00;101686.18;;;;-51
2021/09/22 10:46:40;;;;;;;3.98;2.80;;;;;;;19.81;66.00;101687.66;;;;-51
2021/09/22 10:49:40;;;;;;;3.92;2.77;;;;;;;19.79;66.07;101681.42;;;;-57
2021/09/22 10:52:40;;;;;;;2.91;2.63;;;;;;;19.80;66.09;101679.27;;;;-57
2021/09/22 10:55:40;;;;;;;3.49;2.65;;;;;;;19.81;66.15;101676.91;;;;-57
2021/09/22 10:58:40;;;;;;;3.75;2.52;;;;;;;19.80;66.07;101674.39;;;;-56
2021/09/22 11:01:40;;;;;;;3.74;2.80;;;;;;;19.81;66.15;101670.41;;;;-61
2021/09/22 11:04:40;;;;;;;3.27;2.71;;;;;;;19.83;66.24;101669.89;;;;-66
2021/09/22 11:07:40;;;;;;;3.45;2.53;;;;;;;19.85;66.25;101661.72;;;;-64
2021/09/22 11:10:45;;;;;;;5.03;2.70;;;;;;;19.85;66.22;101654.56;;;;-61
2021/09/22 11:13:43;;;;;;;4.55;2.65;;;;;;;19.86;66.24;101654.52;;;;-63
2021/09/22 11:16:40;;;;;;;3.53;2.58;;;;;;;19.88;66.22;101651.64;;;;-66
2021/09/22 11:19:40;;;;;;;2.95;2.61;;;;;;;19.89;66.25;101650.27;;;;-66
2021/09/22 11:22:40;;;;;;;4.67;2.85;;;;;;;19.90;65.66;101645.18;;;;-60
2021/09/22 11:25:40;;;;;;;4.48;2.82;;;;;;;19.90;66.19;101647.63;;;;-53
2021/09/22 11:28:40;;;;;;;3.41;2.69;;;;;;;19.89;66.08;101639.20;;;;-53
2021/09/22 11:31:40;;;;;;;3.51;2.58;;;;;;;19.89;66.16;101639.45;;;;-53
2021/09/22 11:34:40;;;;;;;2.63;2.43;;;;;;;19.90;66.19;101642.14;;;;-53
2021/09/22 11:37:40;;;;;;;3.75;2.54;;;;;;;19.89;66.17;101636.36;;;;-52
2021/09/22 11:40:40;;;;;;;5.59;2.63;;;;;;;19.89;66.18;101633.09;;;;-53
2021/09/22 11:43:40;;;;;;;4.22;2.71;;;;;;;19.90;66.19;101629.48;;;;-55
2021/09/22 11:46:40;;;;;;;3.33;2.50;;;;;;;19.89;66.22;101620.16;;;;-60
2021/09/22 11:49:40;;;;;;;3.75;2.82;;;;;;;19.90;66.23;101612.64;;;;-60
2021/09/22 11:52:40;;;;;;;3.13;2.44;;;;;;;19.89;66.23;101607.72;;;;-55
2021/09/22 11:55:40;;;;;;;3.21;2.53;;;;;;;19.89;66.29;101603.16;;;;-52
2021/09/22 11:58:42;;;;;;;3.06;2.73;;;;;;;19.90;66.31;101602.22;;;;-53
2021/09/22 12:01:40;;;;;;;3.06;2.57;;;;;;;19.90;66.25;101595.96;;;;-53
2021/09/22 12:04:40;;;;;;;2.57;2.37;;;;;;;19.91;66.30;101599.55;;;;-53
2021/09/22 12:07:40;;;;;;;2.87;2.55;;;;;;;19.91;66.32;101600.60;;;;-53
2021/09/22 12:10:40;;;;;;;2.60;2.40;;;;;;;19.90;66.32;101598.73;;;;-52
2021/09/22 12:13:40;;;;;;;2.60;2.40;;;;;;;19.90;66.36;101594.98;;;;-53
2021/09/22 12:16:40;;;;;;;2.89;2.57;;;;;;;19.91;66.33;101593.84;;;;-53
2021/09/22 12:19:40;;;;;;;2.89;2.61;;;;;;;19.91;66.35;101591.81;;;;-53
2021/09/22 12:22:40;;;;;;;4.85;2.50;;;;;;;19.92;66.36;101589.63;;;;-55
2021/09/22 12:25:40;;;;;;;2.92;2.33;;;;;;;19.92;66.36;101577.66;;;;-55
2021/09/22 12:28:40;;;;;;;2.60;2.40;;;;;;;19.92;66.38;101575.87;;;;-55
2021/09/22 12:31:41;;;;;;;2.59;2.39;;;;;;;19.92;66.34;101572.14;;;;-55
2021/09/22 12:34:40;;;;;;;2.55;2.35;;;;;;;19.91;66.37;101562.94;;;;-53
2021/09/22 12:37:40;;;;;;;4.71;2.59;;;;;;;19.93;66.34;101565.59;;;;-54
2021/09/22 12:40:40;;;;;;;2.88;2.40;;;;;;;19.93;66.47;101555.41;;;;-58
2021/09/22 12:43:40;;;;;;;3.14;2.28;;;;;;;19.94;66.41;101551.34;;;;-54
2021/09/22 12:46:40;;;;;;;2.60;2.33;;;;;;;19.95;66.46;101540.89;;;;-53
2021/09/22 12:49:40;;;;;;;3.14;2.40;;;;;;;19.95;66.47;101535.44;;;;-62
2021/09/22 12:52:40;;;;;;;2.99;2.43;;;;;;;19.97;66.50;101532.06;;;;-65
2021/09/22 12:55:40;;;;;;;4.48;2.34;;;;;;;19.97;66.53;101527.77;;;;-61
2021/09/22 12:58:40;;;;;;;3.27;2.43;;;;;;;19.98;66.52;101525.89;;;;-62
2021/09/22 13:01:40;;;;;;;3.72;2.35;;;;;;;20.00;66.49;101518.13;;;;-60
2021/09/22 13:04:40;;;;;;;3.07;2.30;;;;;;;20.01;66.50;101517.02;;;;-54
2021/09/22 13:07:40;;;;;;;2.46;2.16;;;;;;;20.02;66.37;101513.61;;;;-53
2021/09/22 13:10:40;;;;;;;9.30;2.67;;;;;;;20.04;66.33;101507.96;;;;-61
2021/09/22 13:13:40;;;;;;;3.91;2.20;;;;;;;20.04;66.28;101504.45;;;;-55
2021/09/22 13:16:41;;;;;;;12.01;2.49;;;;;;;20.04;66.28;101501.29;;;;-52
2021/09/22 13:19:41;;;;;;;3.19;2.23;;;;;;;20.05;66.23;101494.16;;;;-52
2021/09/22 13:22:40;;;;;;;3.08;2.35;;;;;;;20.04;66.25;101492.91;;;;-51
2021/09/22 13:25:40;;;;;;;3.69;2.25;;;;;;;20.05;66.25;101492.05;;;;-51
2021/09/22 13:28:40;;;;;;;5.49;2.49;;;;;;;20.05;66.21;101488.30;;;;-52
2021/09/22 13:31:40;;;;;;;5.23;2.64;;;;;;;20.04;66.07;101482.73;;;;-60
2021/09/22 13:34:40;;;;;;;4.97;2.36;;;;;;;20.03;66.15;101479.72;;;;-60
2021/09/22 13:37:40;;;;;;;2.67;2.39;;;;;;;20.03;66.12;101473.20;;;;-59
2021/09/22 13:40:40;;;;;;;3.88;2.24;;;;;;;20.03;66.14;101470.20;;;;-60
2021/09/22 13:43:40;;;;;;;3.79;2.45;;;;;;;20.02;66.16;101470.16;;;;-54
2021/09/22 13:46:43;;;;;;;4.69;2.19;;;;;;;20.02;66.18;101468.13;;;;-52
2021/09/22 13:49:40;;;;;;;2.79;2.35;;;;;;;20.02;66.19;101470.23;;;;-53
2021/09/22 13:52:40;;;;;;;3.57;2.13;;;;;;;20.02;66.26;101469.51;;;;-54
2021/09/22 13:55:40;;;;;;;3.49;2.31;;;;;;;20.01;66.22;101467.47;;;;-53
2021/09/22 13:58:40;;;;;;;3.03;2.29;;;;;;;20.02;66.25;101460.06;;;;-52
2021/09/22 14:01:40;;;;;;;3.63;2.20;;;;;;;20.01;66.25;101455.27;;;;-53
2021/09/22 14:04:40;;;;;;;4.58;2.29;;;;;;;20.02;66.31;101457.14;;;;-53
2021/09/22 14:07:40;;;;;;;4.13;2.27;;;;;;;20.01;66.29;101456.00;;;;-53
2021/09/22 14:10:40;;;;;;;4.74;2.17;;;;;;;20.02;66.53;101455.52;;;;-62
2021/09/22 14:13:56;;;;;;;2.56;2.06;;;;;;;20.05;66.54;101450.55;;;;-51
2021/09/22 14:16:56;;;;;;;5.73;2.17;;;;;;;20.05;66.62;101451.52;;;;-51
2021/09/22 14:23:18;;;;;;;10.29;2.87;;;;;;;20.07;66.65;101447.66;;;;-51
2021/09/22 14:26:40;;;;;;;3.95;2.32;;;;;;;20.08;66.62;101451.57;;;;-52
2021/09/22 14:29:39;;;;;;;4.27;2.35;;;;;;;20.09;66.58;101448.84;;;;-53
2021/09/22 14:32:40;;;;;;;5.41;2.36;;;;;;;20.09;66.67;101445.01;;;;-54
2021/09/22 14:35:40;;;;;;;3.31;2.38;;;;;;;20.11;66.52;101441.80;;;;-53
2021/09/22 14:38:39;;;;;;;10.31;2.72;;;;;;;20.13;66.36;101438.74;;;;-54
2021/09/22 14:41:40;;;;;;;5.23;2.13;;;;;;;20.13;66.41;101435.65;;;;-59
2021/09/22 14:44:40;;;;;;;5.51;2.29;;;;;;;20.14;66.44;101429.38;;;;-56
2021/09/22 14:47:40;;;;;;;4.09;2.25;;;;;;;20.17;66.56;101429.63;;;;-53
2021/09/22 14:50:39;;;;;;;5.18;2.37;;;;;;;20.17;66.51;101428.81;;;;-53
2021/09/22 14:53:40;;;;;;;6.03;2.29;;;;;;;20.17;66.51;101427.59;;;;-54
2021/09/22 14:56:40;;;;;;;7.95;2.21;;;;;;;20.18;66.55;101422.22;;;;-53
2021/09/22 14:59:41;;;;;;;4.25;2.25;;;;;;;20.19;66.58;101414.90;;;;-54
2021/09/22 15:02:41;;;;;;;3.23;2.35;;;;;;;20.19;66.69;101413.95;;;;-55
2021/09/22 15:05:40;;;;;;;4.17;2.09;;;;;;;20.19;66.69;101414.09;;;;-62
2021/09/22 15:08:40;;;;;;;8.21;2.41;;;;;;;20.18;66.64;101411.80;;;;-63
2021/09/22 15:11:39;;;;;;;4.45;2.15;;;;;;;20.18;66.65;101409.69;;;;-62
2021/09/22 15:14:40;;;;;;;4.60;2.30;;;;;;;20.16;66.57;101404.44;;;;-63
2021/09/22 15:17:40;;;;;;;5.17;2.18;;;;;;;20.17;66.53;101404.60;;;;-63
2021/09/22 15:20:40;;;;;;;3.80;2.17;;;;;;;20.17;66.49;101403.50;;;;-63
2021/09/22 15:23:40;;;;;;;4.47;2.19;;;;;;;20.16;66.50;101395.89;;;;-63
2021/09/22 15:26:40;;;;;;;4.51;2.11;;;;;;;20.16;66.41;101395.56;;;;-63
2021/09/22 15:29:40;;;;;;;4.37;2.28;;;;;;;20.15;66.41;101392.06;;;;-63
2021/09/22 15:32:39;;;;;;;3.04;2.17;;;;;;;20.15;66.44;101392.96;;;;-63
2021/09/22 15:35:40;;;;;;;2.99;2.06;;;;;;;20.14;66.44;101391.22;;;;-64
2021/09/22 15:38:40;;;;;;;7.05;2.40;;;;;;;20.13;66.37;101387.92;;;;-58
2021/09/22 15:41:40;;;;;;;3.09;2.22;;;;;;;20.15;66.40;101386.86;;;;-51
2021/09/22 15:44:39;;;;;;;2.73;2.11;;;;;;;20.15;66.36;101386.86;;;;-52
2021/09/22 15:47:40;;;;;;;4.16;2.20;;;;;;;20.17;66.40;101391.34;;;;-51
2021/09/22 15:50:40;;;;;;;3.73;1.97;;;;;;;20.16;66.52;101385.64;;;;-51
2021/09/22 15:53:40;;;;;;;3.62;2.25;;;;;;;20.17;66.55;101382.17;;;;-59
2021/09/22 15:56:39;;;;;;;4.19;2.13;;;;;;;20.19;66.61;101375.42;;;;-59
2021/09/22 15:59:39;;;;;;;4.28;2.25;;;;;;;20.22;66.61;101367.27;;;;-60
2021/09/22 16:02:40;;;;;;;3.33;2.17;;;;;;;20.22;66.56;101368.09;;;;-61
2021/09/22 16:05:40;;;;;;;3.35;2.09;;;;;;;20.22;66.61;101365.41;;;;-61
2021/09/22 16:08:39;;;;;;;3.37;1.96;;;;;;;20.22;66.67;101365.41;;;;-61
2021/09/22 16:11:40;;;;;;;3.07;2.11;;;;;;;20.23;66.69;101363.86;;;;-61
2021/09/22 16:14:40;;;;;;;2.59;2.01;;;;;;;20.24;66.70;101364.70;;;;-59
2021/09/22 16:17:40;;;;;;;3.96;2.17;;;;;;;20.25;66.74;101368.94;;;;-63
2021/09/22 16:20:40;;;;;;;2.25;2.05;;;;;;;20.25;66.77;101371.55;;;;-67
2021/09/22 16:23:40;;;;;;;2.72;2.00;;;;;;;20.24;66.83;101370.81;;;;-61
2021/09/22 16:26:40;;;;;;;3.21;1.85;;;;;;;20.26;66.84;101368.48;;;;-65
2021/09/22 16:29:39;;;;;;;2.99;2.00;;;;;;;20.27;66.85;101366.53;;;;-64
2021/09/22 16:32:40;;;;;;;5.23;2.40;;;;;;;20.28;66.86;101362.50;;;;-63
2021/09/22 16:35:40;;;;;;;2.67;2.08;;;;;;;20.30;66.86;101361.31;;;;-50
2021/09/22 16:38:39;;;;;;;3.68;2.01;;;;;;;20.30;66.80;101362.70;;;;-55
2021/09/22 16:41:40;;;;;;;2.60;1.98;;;;;;;20.30;66.93;101359.93;;;;-61
2021/09/22 16:44:40;;;;;;;3.03;2.05;;;;;;;20.31;66.85;101360.26;;;;-53